createdAt,value
2023-01-02T00:01:43.269Z,14.91
2023-01-02T00:04:11.646Z,14.99
2023-01-02T00:06:41.276Z,15.00
2023-01-02T00:09:10.665Z,14.93
2023-01-02T00:11:39.483Z,14.97
2023-01-02T00:14:08.062Z,14.98
2023-01-02T00:16:36.724Z,14.99
2023-01-02T00:19:08.832Z,14.95
2023-01-02T00:21:38.238Z,15.08
2023-01-02T00:24:07.831Z,14.96
2023-01-02T00:26:36.482Z,14.87
2023-01-02T00:29:05.654Z,14.94
2023-01-02T00:31:34.507Z,14.93
2023-01-02T00:34:02.944Z,14.89
2023-01-02T00:36:33.195Z,14.91
2023-01-02T00:39:01.814Z,14.91
2023-01-02T00:41:30.535Z,14.91
2023-01-02T00:43:59.279Z,14.87
2023-01-02T00:46:27.799Z,14.86
2023-01-02T00:48:56.575Z,14.86
2023-01-02T00:51:25.197Z,14.86
2023-01-02T00:53:54.808Z,14.74
2023-01-02T00:56:23.229Z,14.81
2023-01-02T00:58:51.441Z,14.75
2023-01-02T01:01:20.267Z,14.79
2023-01-02T01:03:48.846Z,14.64
2023-01-02T01:06:17.436Z,14.64
2023-01-02T01:08:46.095Z,14.59
2023-01-02T01:11:18.081Z,14.52
2023-01-02T01:13:47.617Z,14.55
2023-01-02T01:16:18.744Z,14.54
2023-01-02T01:18:48.240Z,14.55
2023-01-02T01:21:19.094Z,14.63
2023-01-02T01:23:52.801Z,14.63
2023-01-02T01:26:24.187Z,14.48
2023-01-02T01:28:54.598Z,14.54
2023-01-02T01:31:24.395Z,14.45
2023-01-02T01:33:52.819Z,14.53
2023-01-02T01:36:24.043Z,14.50
2023-01-02T01:38:52.837Z,14.51
2023-01-02T01:41:26.782Z,14.45
2023-01-02T01:44:00.355Z,14.50
2023-01-02T01:46:36.862Z,14.53
2023-01-02T01:49:12.807Z,14.50
2023-01-02T01:51:48.796Z,14.45
2023-01-02T01:54:23.826Z,14.55
2023-01-02T01:56:59.284Z,14.46
2023-01-02T01:59:28.885Z,14.40
2023-01-02T02:01:59.712Z,14.30
2023-01-02T02:04:29.349Z,14.26
2023-01-02T02:06:58.110Z,14.06
2023-01-02T02:09:34.294Z,14.00
2023-01-02T02:12:06.551Z,13.89
2023-01-02T02:14:36.103Z,13.92
2023-01-02T02:17:18.227Z,13.98
2023-01-02T02:20:29.619Z,13.92
2023-01-02T02:23:43.242Z,13.87
2023-01-02T02:26:50.219Z,13.88
2023-01-02T02:30:04.821Z,13.78
2023-01-02T02:33:05.509Z,13.82
2023-01-02T02:35:54.664Z,13.81
2023-01-02T02:38:38.537Z,13.79
2023-01-02T02:41:18.841Z,13.86
2023-01-02T02:43:59.548Z,13.75
2023-01-02T02:46:39.334Z,13.78
2023-01-02T02:49:17.187Z,13.74
2023-01-02T02:51:50.967Z,13.70
2023-01-02T02:54:26.151Z,13.89
2023-01-02T02:56:55.568Z,13.71
2023-01-02T02:59:25.004Z,13.82
2023-01-02T03:01:55.045Z,13.85
2023-01-02T03:04:24.719Z,13.80
2023-01-02T03:07:12.830Z,13.77
2023-01-02T03:09:58.926Z,13.87
2023-01-02T03:12:39.799Z,13.84
2023-01-02T03:15:20.001Z,13.93
2023-01-02T03:18:04.995Z,13.87
2023-01-02T03:20:40.473Z,13.89
2023-01-02T03:23:15.282Z,13.83
2023-01-02T03:25:45.512Z,13.74
2023-01-02T03:28:18.851Z,13.76
2023-01-02T03:30:51.430Z,13.68
2023-01-02T03:33:26.619Z,13.59
2023-01-02T03:36:00.713Z,13.58
2023-01-02T03:38:33.188Z,13.53
2023-01-02T03:41:10.127Z,13.55
2023-01-02T03:43:42.444Z,13.43
2023-01-02T03:46:27.822Z,13.44
2023-01-02T03:49:03.691Z,13.32
2023-01-02T03:51:32.384Z,13.33
2023-01-02T03:54:01.986Z,13.16
2023-01-02T03:56:42.739Z,13.12
2023-01-02T03:59:21.454Z,13.09
2023-01-02T04:01:55.420Z,13.02
2023-01-02T04:04:37.625Z,13.06
2023-01-02T04:07:13.175Z,12.98
2023-01-02T04:09:43.532Z,12.95
2023-01-02T04:12:15.415Z,12.89
2023-01-02T04:14:47.975Z,12.95
2023-01-02T04:17:19.771Z,13.03
2023-01-02T04:19:54.346Z,13.01
2023-01-02T04:22:28.030Z,12.92
2023-01-02T04:25:02.707Z,12.91
2023-01-02T04:27:36.724Z,12.92
2023-01-02T04:30:06.873Z,12.90
2023-01-02T04:32:42.041Z,12.80
2023-01-02T04:35:16.474Z,12.84
2023-01-02T04:37:46.539Z,12.83
2023-01-02T04:40:21.427Z,12.88
2023-01-02T04:42:49.992Z,12.87
2023-01-02T04:45:18.797Z,12.66
2023-01-02T04:47:49.339Z,12.58
2023-01-02T04:50:19.522Z,12.60
2023-01-02T04:52:47.872Z,12.56
2023-01-02T04:55:16.654Z,12.59
2023-01-02T04:57:45.409Z,12.45
2023-01-02T05:00:15.637Z,12.47
2023-01-02T05:02:44.386Z,12.53
2023-01-02T05:05:13.111Z,12.38
2023-01-02T05:07:42.736Z,12.41
2023-01-02T05:10:12.201Z,12.32
2023-01-02T05:12:41.213Z,12.28
2023-01-02T05:15:11.777Z,12.31
2023-01-02T05:17:42.895Z,12.32
2023-01-02T05:20:14.031Z,12.32
2023-01-02T05:23:02.686Z,12.17
2023-01-02T05:25:35.298Z,12.14
2023-01-02T05:28:04.527Z,12.18
2023-01-02T05:30:33.066Z,12.16
2023-01-02T05:33:01.349Z,12.21
2023-01-02T05:35:32.843Z,12.09
2023-01-02T05:38:03.855Z,12.07
2023-01-02T05:40:32.448Z,12.10
2023-01-02T05:43:02.089Z,12.05
2023-01-02T05:45:30.565Z,12.06
2023-01-02T05:47:59.034Z,11.96
2023-01-02T05:50:28.272Z,12.04
2023-01-02T05:52:57.599Z,12.03
2023-01-02T05:55:27.545Z,12.02
2023-01-02T05:57:59.241Z,11.97
2023-01-02T06:00:27.701Z,12.01
2023-01-02T06:02:56.525Z,12.01
2023-01-02T06:05:25.210Z,12.08
2023-01-02T06:07:53.951Z,12.08
2023-01-02T06:10:22.671Z,11.98
2023-01-02T06:12:52.753Z,12.02
2023-01-02T06:15:21.576Z,12.05
2023-01-02T06:17:49.813Z,11.91
2023-01-02T06:20:20.167Z,11.90
2023-01-02T06:22:48.750Z,11.94
2023-01-02T06:25:18.130Z,11.99
2023-01-02T06:27:46.692Z,11.95
2023-01-02T06:30:17.014Z,11.98
2023-01-02T06:32:45.810Z,11.95
2023-01-02T06:35:14.159Z,11.94
2023-01-02T06:37:45.342Z,11.89
2023-01-02T06:40:14.414Z,11.82
2023-01-02T06:42:45.854Z,11.90
2023-01-02T06:45:15.936Z,11.82
2023-01-02T06:47:47.737Z,11.75
2023-01-02T06:50:16.341Z,11.83
2023-01-02T06:52:44.845Z,11.74
2023-01-02T06:55:13.573Z,11.71
2023-01-02T06:57:42.099Z,11.65
2023-01-02T07:00:13.479Z,11.68
2023-01-02T07:02:43.532Z,11.64
2023-01-02T07:05:12.948Z,11.53
2023-01-02T07:07:42.132Z,11.62
2023-01-02T07:10:11.333Z,11.41
2023-01-02T07:12:40.474Z,11.51
2023-01-02T07:15:09.786Z,11.42
2023-01-02T07:17:38.301Z,11.40
2023-01-02T07:20:11.153Z,11.44
2023-01-02T07:22:39.961Z,11.41
2023-01-02T07:25:09.798Z,11.53
2023-01-02T07:27:37.968Z,11.42
2023-01-02T07:30:07.751Z,11.24
2023-01-02T07:32:36.328Z,11.31
2023-01-02T07:35:05.273Z,11.35
2023-01-02T07:37:35.152Z,11.39
2023-01-02T07:40:03.763Z,11.41
2023-01-02T07:42:32.391Z,11.33
2023-01-02T07:45:00.914Z,11.40
2023-01-02T07:47:29.345Z,11.22
2023-01-02T07:49:58.065Z,11.36
2023-01-02T07:52:26.490Z,11.34
2023-01-02T07:54:56.570Z,11.12
2023-01-02T07:57:25.174Z,11.33
2023-01-02T07:59:53.815Z,11.37
2023-01-02T08:02:22.594Z,11.26
2023-01-02T08:04:51.340Z,11.25
2023-01-02T08:07:20.037Z,11.23
2023-01-02T08:09:48.668Z,11.24
2023-01-02T08:12:18.772Z,11.22
2023-01-02T08:14:47.072Z,11.13
2023-01-02T08:17:15.544Z,11.17
2023-01-02T08:19:44.333Z,11.19
2023-01-02T08:22:12.789Z,11.22
2023-01-02T08:24:41.313Z,11.17
2023-01-02T08:27:09.888Z,11.11
2023-01-02T08:29:39.862Z,11.02
2023-01-02T08:32:08.332Z,10.98
2023-01-02T08:34:37.219Z,10.92
2023-01-02T08:37:05.646Z,11.03
2023-01-02T08:39:34.164Z,10.95
2023-01-02T08:42:03.306Z,10.77
2023-01-02T08:44:31.497Z,10.92
2023-01-02T08:47:01.210Z,10.96
2023-01-02T08:49:29.685Z,10.81
2023-01-02T08:51:58.378Z,10.91
2023-01-02T08:54:27.158Z,10.96
2023-01-02T08:56:55.827Z,11.03
2023-01-02T08:59:26.205Z,10.93
2023-01-02T09:01:55.541Z,10.96
2023-01-02T09:04:26.305Z,10.80
2023-01-02T09:06:55.013Z,10.81
2023-01-02T09:09:23.510Z,10.82
2023-01-02T09:11:53.785Z,10.82
2023-01-02T09:14:23.487Z,10.93
2023-01-02T09:16:54.782Z,10.80
2023-01-02T09:19:23.428Z,10.81
2023-01-02T09:21:53.573Z,10.83
2023-01-02T09:24:22.065Z,10.86
2023-01-02T09:26:50.676Z,10.92
2023-01-02T09:29:19.944Z,10.83
2023-01-02T09:31:48.602Z,10.81
2023-01-02T09:34:17.150Z,10.48
2023-01-02T09:36:47.665Z,10.66
2023-01-02T09:39:18.298Z,10.64
2023-01-02T09:41:51.815Z,10.61
2023-01-02T09:44:27.443Z,10.62
2023-01-02T09:47:00.272Z,10.81
2023-01-02T09:49:38.294Z,10.78
2023-01-02T09:52:08.854Z,10.59
2023-01-02T09:54:40.419Z,10.45
2023-01-02T09:57:26.259Z,10.61
2023-01-02T10:00:02.789Z,10.84
2023-01-02T10:02:54.586Z,10.61
2023-01-02T10:06:07.163Z,10.78
2023-01-02T10:08:49.728Z,10.68
2023-01-02T10:11:36.812Z,10.60
2023-01-02T10:14:19.777Z,10.73
2023-01-02T10:16:53.675Z,10.74
2023-01-02T10:19:29.384Z,10.82
2023-01-02T10:22:02.129Z,10.61
2023-01-02T10:24:40.463Z,10.53
2023-01-02T10:27:17.859Z,10.72
2023-01-02T10:29:55.798Z,10.45
2023-01-02T10:32:28.324Z,10.56
2023-01-02T10:35:12.697Z,10.80
2023-01-02T10:37:41.335Z,10.85
2023-01-02T10:40:11.128Z,10.78
2023-01-02T10:42:42.876Z,10.66
2023-01-02T10:45:17.705Z,10.65
2023-01-02T10:47:46.772Z,10.91
2023-01-02T10:50:22.743Z,10.81
2023-01-02T10:52:53.694Z,11.01
2023-01-02T10:55:33.525Z,10.61
2023-01-02T10:58:13.342Z,10.67
2023-01-02T11:00:42.029Z,10.68
2023-01-02T11:03:18.829Z,10.78
2023-01-02T11:05:51.779Z,10.88
2023-01-02T11:08:23.145Z,10.53
2023-01-02T11:10:52.966Z,10.58
2023-01-02T11:13:23.815Z,10.46
2023-01-02T11:15:58.640Z,10.60
2023-01-02T11:18:30.722Z,10.58
2023-01-02T11:21:04.496Z,10.58
2023-01-02T11:23:37.903Z,10.59
2023-01-02T11:26:12.127Z,10.66
2023-01-02T11:28:43.993Z,10.35
2023-01-02T11:31:15.607Z,10.35
2023-01-02T11:33:45.376Z,10.28
2023-01-02T11:36:19.430Z,10.38
2023-01-02T11:38:51.073Z,10.27
2023-01-02T11:41:52.180Z,10.33
2023-01-02T11:44:29.011Z,10.21
2023-01-02T11:46:59.828Z,10.21
2023-01-02T11:49:38.017Z,10.26
2023-01-02T11:52:08.060Z,10.30
2023-01-02T11:54:45.889Z,10.09
2023-01-02T11:57:25.823Z,10.21
2023-01-02T11:59:57.018Z,10.24
2023-01-02T12:02:32.958Z,10.29
2023-01-02T12:05:01.646Z,10.26
2023-01-02T12:07:47.069Z,10.28
2023-01-02T12:10:40.116Z,10.25
2023-01-02T12:13:31.585Z,10.20
2023-01-02T12:16:25.416Z,10.29
2023-01-02T12:19:39.812Z,10.19
2023-01-02T12:22:26.383Z,10.03
2023-01-02T12:25:24.820Z,10.19
2023-01-02T12:28:02.133Z,10.13
2023-01-02T12:30:35.487Z,9.89
2023-01-02T12:33:36.566Z,10.03
2023-01-02T12:36:31.628Z,9.85
2023-01-02T12:39:30.333Z,9.82
2023-01-02T12:42:15.318Z,9.78
2023-01-02T12:44:52.441Z,9.82
2023-01-02T12:47:43.958Z,9.99
2023-01-02T12:50:48.443Z,9.95
2023-01-02T12:53:38.239Z,10.10
2023-01-02T12:56:15.296Z,10.18
2023-01-02T12:59:11.154Z,10.00
2023-01-02T13:01:47.908Z,10.24
2023-01-02T13:04:22.488Z,10.26
2023-01-02T13:06:55.661Z,10.22
2023-01-02T13:09:32.036Z,9.99
2023-01-02T13:12:10.082Z,9.98
2023-01-02T13:14:44.741Z,10.06
2023-01-02T13:17:44.832Z,10.09
2023-01-02T13:20:30.956Z,10.01
2023-01-02T13:23:14.068Z,10.16
2023-01-02T13:25:50.679Z,9.83
2023-01-02T13:28:20.941Z,9.78
2023-01-02T13:31:44.032Z,10.03
2023-01-02T13:33:56.226Z,9.96
2023-01-02T13:36:28.544Z,9.92
2023-01-02T13:39:01.519Z,10.02
2023-01-02T13:41:58.121Z,10.13
2023-01-02T13:44:36.262Z,9.84
2023-01-02T13:47:25.685Z,9.68
2023-01-02T13:50:04.219Z,9.93
2023-01-02T13:52:33.301Z,9.97
2023-01-02T13:55:34.550Z,9.76
2023-01-02T13:59:00.202Z,9.60
2023-01-02T14:02:17.055Z,9.84
2023-01-02T14:04:47.824Z,9.82
2023-01-02T14:07:49.682Z,9.91
2023-01-02T14:10:40.678Z,9.88
2023-01-02T14:13:22.928Z,9.66
2023-01-02T14:16:33.268Z,9.66
2023-01-02T14:19:18.238Z,9.79
2023-01-02T14:21:54.091Z,9.65
2023-01-02T14:24:34.006Z,9.71
2023-01-02T14:27:06.468Z,9.73
2023-01-02T14:29:50.643Z,9.78
2023-01-02T14:32:25.832Z,9.59
2023-01-02T14:34:56.325Z,9.59
2023-01-02T14:37:38.614Z,9.64
2023-01-02T14:40:37.085Z,9.53
2023-01-02T14:43:30.863Z,9.65
2023-01-02T14:46:09.239Z,9.86
2023-01-02T14:48:44.497Z,9.58
2023-01-02T14:51:21.854Z,9.41
2023-01-02T14:53:56.097Z,9.46
2023-01-02T14:56:36.987Z,9.64
2023-01-02T14:59:13.657Z,9.53
2023-01-02T15:01:50.162Z,9.30
2023-01-02T15:04:27.557Z,9.45
2023-01-02T15:07:10.364Z,9.27
2023-01-02T15:09:45.221Z,9.54
2023-01-02T15:12:42.386Z,9.41
2023-01-02T15:15:14.278Z,9.37
2023-01-02T15:17:43.821Z,9.48
2023-01-02T15:20:20.011Z,9.49
2023-01-02T15:22:49.612Z,9.20
2023-01-02T15:25:35.323Z,9.29
2023-01-02T15:28:04.697Z,9.36
2023-01-02T15:30:38.777Z,9.37
2023-01-02T15:33:25.948Z,9.30
2023-01-02T15:36:00.555Z,9.22
2023-01-02T15:38:29.624Z,9.28
2023-01-02T15:41:00.146Z,9.22
2023-01-02T15:43:51.028Z,9.17
2023-01-02T15:46:19.869Z,9.17
2023-01-02T15:48:50.736Z,9.20
2023-01-02T15:51:40.404Z,9.09
2023-01-02T15:54:14.580Z,8.91
2023-01-02T15:56:44.692Z,9.06
2023-01-02T15:59:28.718Z,9.07
2023-01-02T16:01:57.571Z,9.08
2023-01-02T16:04:29.022Z,9.20
2023-01-02T16:06:59.311Z,9.25
2023-01-02T16:09:31.174Z,9.19
2023-01-02T16:12:04.668Z,9.31
2023-01-02T16:14:42.914Z,9.29
2023-01-02T16:17:19.103Z,9.10
2023-01-02T16:19:58.167Z,9.14
2023-01-02T16:22:30.847Z,9.19
2023-01-02T16:25:07.841Z,9.17
2023-01-02T16:27:48.980Z,9.25
2023-01-02T16:30:37.833Z,9.22
2023-01-02T16:33:23.338Z,9.16
2023-01-02T16:36:00.262Z,9.17
2023-01-02T16:38:30.423Z,9.26
2023-01-02T16:41:03.227Z,9.31
2023-01-02T16:43:42.883Z,9.08
2023-01-02T16:46:16.444Z,9.09
2023-01-02T16:48:45.623Z,9.11
2023-01-02T16:51:16.929Z,9.20
2023-01-02T16:53:46.737Z,9.07
2023-01-02T16:56:16.724Z,9.11
2023-01-02T16:58:46.757Z,9.11
2023-01-02T17:01:17.764Z,8.95
2023-01-02T17:03:46.379Z,8.91
2023-01-02T17:06:18.247Z,9.05
2023-01-02T17:08:46.841Z,9.02
2023-01-02T17:11:18.155Z,9.10
2023-01-02T17:13:48.303Z,8.94
2023-01-02T17:16:17.285Z,9.07
2023-01-02T17:18:46.255Z,9.09
2023-01-02T17:21:14.848Z,8.97
2023-01-02T17:23:43.364Z,9.03
2023-01-02T17:26:11.846Z,9.05
2023-01-02T17:28:40.285Z,9.06
2023-01-02T17:31:15.180Z,8.97
2023-01-02T17:33:43.811Z,8.91
2023-01-02T17:36:12.235Z,8.93
2023-01-02T17:38:40.880Z,8.92
2023-01-02T17:41:09.427Z,8.88
2023-01-02T17:43:37.946Z,8.85
2023-01-02T17:46:30.189Z,8.86
2023-01-02T17:48:57.222Z,8.85
2023-01-02T17:51:25.841Z,8.81
2023-01-02T17:53:55.884Z,8.83
2023-01-02T17:56:25.749Z,8.66
2023-01-02T17:58:54.155Z,8.70
2023-01-02T18:01:23.271Z,8.66
2023-01-02T18:03:52.368Z,8.65
2023-01-02T18:06:22.348Z,8.65
2023-01-02T18:08:54.450Z,8.69
2023-01-02T18:11:25.485Z,8.64
2023-01-02T18:13:56.726Z,8.62
2023-01-02T18:16:33.041Z,8.52
2023-01-02T18:19:04.155Z,8.55
2023-01-02T18:21:35.243Z,8.58
2023-01-02T18:24:14.524Z,8.55
2023-01-02T18:26:43.405Z,8.52
2023-01-02T18:29:22.843Z,8.56
2023-01-02T18:31:51.585Z,8.68
2023-01-02T18:34:47.279Z,8.61
2023-01-02T18:37:22.208Z,8.51
2023-01-02T18:39:51.268Z,8.49
2023-01-02T18:42:26.535Z,8.43
2023-01-02T18:44:56.803Z,8.55
2023-01-02T18:47:28.473Z,8.53
2023-01-02T18:50:02.356Z,8.54
2023-01-02T18:52:37.453Z,8.53
2023-01-02T18:55:23.768Z,8.65
2023-01-02T18:58:00.951Z,8.61
2023-01-02T19:00:31.577Z,8.54
2023-01-02T19:03:03.869Z,8.55
2023-01-02T19:05:34.510Z,8.44
2023-01-02T19:08:19.089Z,8.48
2023-01-02T19:10:51.236Z,8.37
2023-01-02T19:13:22.780Z,8.33
2023-01-02T19:15:57.263Z,8.36
2023-01-02T19:18:40.142Z,8.46
2023-01-02T19:21:25.163Z,8.37
2023-01-02T19:23:59.514Z,8.34
2023-01-02T19:26:34.686Z,8.16
2023-01-02T19:29:15.444Z,8.10
2023-01-02T19:31:46.296Z,8.23
2023-01-02T19:34:37.536Z,8.26
2023-01-02T19:37:32.501Z,8.14
2023-01-02T19:40:06.381Z,8.15
2023-01-02T19:42:35.469Z,8.31
2023-01-02T19:45:08.709Z,8.24
2023-01-02T19:47:40.393Z,8.34
2023-01-02T19:50:20.421Z,8.46
2023-01-02T19:52:51.031Z,8.46
2023-01-02T19:55:21.404Z,8.48
2023-01-02T19:57:50.527Z,8.42
2023-01-02T20:00:20.558Z,8.47
2023-01-02T20:02:51.315Z,8.53
2023-01-02T20:05:22.319Z,8.45
2023-01-02T20:07:53.335Z,8.40
2023-01-02T20:10:23.960Z,8.38
2023-01-02T20:12:52.952Z,8.33
2023-01-02T20:15:24.945Z,8.36
2023-01-02T20:17:54.915Z,8.23
2023-01-02T20:20:27.331Z,8.32
2023-01-02T20:22:55.948Z,8.34
2023-01-02T20:25:26.895Z,8.34
2023-01-02T20:27:57.447Z,8.35
2023-01-02T20:30:26.523Z,8.31
2023-01-02T20:32:56.892Z,8.21
2023-01-02T20:35:25.309Z,8.27
2023-01-02T20:37:54.032Z,8.32
2023-01-02T20:40:22.675Z,8.15
2023-01-02T20:42:52.767Z,8.11
2023-01-02T20:45:21.517Z,8.11
2023-01-02T20:47:50.030Z,8.02
2023-01-02T20:50:19.117Z,7.94
2023-01-02T20:52:52.142Z,7.96
2023-01-02T20:55:25.518Z,8.02
2023-01-02T20:57:55.491Z,7.86
2023-01-02T21:00:24.284Z,7.88
2023-01-02T21:02:53.124Z,7.96
2023-01-02T21:05:21.748Z,7.89
2023-01-02T21:07:50.590Z,7.93
2023-01-02T21:10:20.123Z,7.90
2023-01-02T21:13:05.832Z,8.01
2023-01-02T21:15:46.494Z,7.89
2023-01-02T21:18:19.258Z,7.95
2023-01-02T21:20:50.113Z,7.99
2023-01-02T21:23:20.235Z,7.98
2023-01-02T21:25:49.575Z,7.97
2023-01-02T21:28:19.011Z,8.00
2023-01-02T21:30:49.334Z,8.04
2023-01-02T21:33:20.973Z,7.93
2023-01-02T21:35:51.525Z,7.88
2023-01-02T21:38:23.801Z,7.94
2023-01-02T21:40:53.146Z,7.88
2023-01-02T21:43:22.635Z,7.79
2023-01-02T21:45:52.803Z,7.84
2023-01-02T21:48:21.656Z,7.89
2023-01-02T21:50:49.936Z,8.00
2023-01-02T21:53:18.481Z,7.97
2023-01-02T21:55:47.371Z,8.03
2023-01-02T21:58:15.985Z,8.04
2023-01-02T22:00:47.242Z,8.02
2023-01-02T22:03:17.642Z,8.03
2023-01-02T22:05:46.170Z,8.12
2023-01-02T22:08:15.125Z,8.17
2023-01-02T22:10:43.747Z,8.04
2023-01-02T22:13:12.218Z,8.00
2023-01-02T22:15:40.859Z,8.00
2023-01-02T22:18:09.528Z,7.94
2023-01-02T22:20:39.439Z,8.00
2023-01-02T22:23:07.707Z,8.00
2023-01-02T22:25:36.639Z,7.97
2023-01-02T22:28:05.671Z,7.79
2023-01-02T22:30:35.307Z,7.87
2023-01-02T22:33:04.468Z,7.77
2023-01-02T22:35:34.423Z,7.76
2023-01-02T22:38:05.596Z,7.80
2023-01-02T22:40:35.395Z,7.74
2023-01-02T22:43:05.688Z,7.71
2023-01-02T22:45:47.811Z,7.77
2023-01-02T22:48:21.588Z,7.74
2023-01-02T22:50:53.532Z,7.75
2023-01-02T22:53:26.753Z,7.77
2023-01-02T22:55:55.831Z,7.69
2023-01-02T22:58:25.111Z,7.61
2023-01-02T23:01:00.808Z,7.51
2023-01-02T23:03:31.540Z,7.50
2023-01-02T23:05:59.841Z,7.54
2023-01-02T23:08:29.877Z,7.46
2023-01-02T23:10:59.297Z,7.45
2023-01-02T23:13:28.252Z,7.51
2023-01-02T23:16:13.996Z,7.49
2023-01-02T23:18:59.979Z,7.51
2023-01-02T23:21:31.288Z,7.42
2023-01-02T23:24:02.211Z,7.38
2023-01-02T23:26:36.277Z,7.40
2023-01-02T23:29:08.323Z,7.30
2023-01-02T23:31:37.998Z,7.33
2023-01-02T23:34:07.556Z,7.28
2023-01-02T23:36:36.782Z,7.30
2023-01-02T23:39:09.386Z,7.32
2023-01-02T23:41:37.863Z,7.47
2023-01-02T23:44:07.170Z,7.45
2023-01-02T23:46:36.375Z,7.47
2023-01-02T23:49:06.087Z,7.33
2023-01-02T23:51:35.161Z,7.20
2023-01-02T23:54:03.687Z,7.24
2023-01-02T23:56:36.195Z,7.18
2023-01-02T23:59:08.448Z,7.18
